OITR

Urmia Airport

Urmia, Iran
TAF OITR 181110Z 1812/1918 25004MPS 8000 FEW035 TEMPO 1812/1816 25008MPS FEW035CB SCT040 SCT100 TEMPO 1910/1916 25008MPS FEW035CB SCT040 SCT100
Issued Valid From Valid To
Jun-18 @ 11:10 UTC
(2 hours ago)
Jun-18 @ 12:00 UTC
(an hour ago)
Jun-19 @ 18:00 UTC
(-1 days ago)
Jun-18 @ 12:00 to Jun-19 @ 18:00
TAF OITR 181110Z 1812/1918 25004MPS 8000 FEW035
Wind Visibility Clouds
250° at 8 knots 7,998 meters
  • Few at 3,500' AGL
Temporary Jun-18 @ 12:00 to Jun-18 @ 16:00
TEMPO 1812/1816 25008MPS FEW035CB SCT040 SCT100
Wind Clouds
250° at 16 knots
  • Few at 3,500' AGL
  • Scattered at 4,000' AGL
  • Scattered at 10,000' AGL
Temporary Jun-19 @ 10:00 to Jun-19 @ 16:00
TEMPO 1910/1916 25008MPS FEW035CB SCT040 SCT100
Wind Clouds
250° at 16 knots
  • Few at 3,500' AGL
  • Scattered at 4,000' AGL
  • Scattered at 10,000' AGL
TAF OITR 181110Z 1812/1918 25004MPS 8000 FEW035 TEMPO 1812/1816 25008MPS FEW035CB SCT040 SCT100 TEMPO 1910/1916 25008MPS FEW035CB SCT040 SCT100
Issued Jun-18 @ 11:10 UTC
(2 hours ago)
Valid From Jun-18 @ 12:00 UTC
(an hour ago)
Valid To Jun-19 @ 18:00 UTC
(-1 days ago)
Jun-18 @ 12:00 - Jun-19 @ 18:00
Wind Visibility
250° at 8 knots 7,998 meters
Clouds
  • Few at 3,500' AGL
Temporary Jun-18 @ 12:00 - Jun-18 @ 16:00
Wind
250° at 16 knots
Clouds
  • Few at 3,500' AGL
  • Scattered at 4,000' AGL
  • Scattered at 10,000' AGL
Temporary Jun-19 @ 10:00 - Jun-19 @ 16:00
Wind
250° at 16 knots
Clouds
  • Few at 3,500' AGL
  • Scattered at 4,000' AGL
  • Scattered at 10,000' AGL